KPHD/PHD METAR and TAF weather

Enter ICAO airport designator
Station Type Date Time Source
KPHD METAR 2021/05/14 06:53 UTC NOAA

KPHD 140653Z AUTO 00000KT 10SM CLR 04/02 A3031 RMK AO2 SLP267 T00390022


Station Type Date Time Source
KPHD Decoded METAR 2021/05/14 06:53 UTC NOAA

NEW PHILADELPHIA CLEVER FLD, OH, United States (KPHD) 40-28N 81-25W 272M
May 14, 2021 - 02:53 AM EDT / 2021.05.14 0653 UTC
Wind: Calm:0
Visibility: 10 mile(s):0
Sky conditions: clear
Temperature: 39.0 F (3.9 C)
Dew Point: 36.0 F (2.2 C)
Relative Humidity: 88%
Pressure (altimeter): 30.31 in. Hg (1026 hPa)
ob: KPHD 140653Z AUTO 00000KT 10SM CLR 04/02 A3031 RMK AO2 SLP267 T00390022
cycle: 7

Station Type Date Time Source
KPHD TAF UTC NOAA

Error!

Example: see airport list